Time;durP1;ratioP1;P1;durP2;ratioP2;P2;SDS_P1;SDS_P2;PMS_P1;PMS_P2;Temp;Humidity;BMP_temperature;BMP_pressure;BME280_temperature;BME280_humidity;BME280_pressure;Samples;Min_cycle;Max_cycle;Signal;HPM_P1;HPM_P2
2022/06/23 04:04:01;;;;;;;9.00;7.00;;;18.70;99.90;;;;;;5761156;22;20510;-74
2022/06/23 04:06:38;;;;;;;12.00;8.40;;;18.70;99.90;;;;;;4993180;28;20426;-74
2022/06/23 04:09:09;;;;;;;9.97;7.23;;;18.70;99.90;;;;;;4993584;28;20409;-74
2022/06/23 04:12:07;;;;;;;11.93;6.30;;;18.70;99.90;;;;;;5013574;28;20820;-74
2022/06/23 04:15:00;;;;;;;9.20;7.87;;;18.80;99.90;;;;;;4988406;28;20439;-74
2022/06/23 04:17:38;;;;;;;10.80;6.43;;;18.90;99.90;;;;;;4997163;28;20922;-74
2022/06/23 04:20:40;;;;;;;8.73;6.70;;;19.00;99.90;;;;;;4996837;28;20406;-74
2022/06/23 04:23:14;;;;;;;11.50;6.13;;;19.10;99.90;;;;;;4996342;28;20402;-75
2022/06/23 04:25:48;;;;;;;9.10;5.80;;;19.30;99.90;;;;;;5014004;28;20416;-75
2022/06/23 04:28:24;;;;;;;6.17;5.57;;;19.30;99.90;;;;;;4998702;28;20410;-74
2022/06/23 04:30:52;;;;;;;7.80;6.17;;;19.30;99.90;;;;;;5016519;28;20393;-74
2022/06/23 04:33:20;;;;;;;10.00;6.40;;;19.30;99.90;;;;;;5014916;28;20422;-75
2022/06/23 04:35:53;;;;;;;10.37;7.80;;;19.50;99.90;;;;;;4996683;28;20772;-74
2022/06/23 04:38:41;;;;;;;9.27;6.40;;;19.70;99.90;;;;;;4996649;28;20458;-74
2022/06/23 04:41:36;;;;;;;13.10;5.63;;;19.90;99.90;;;;;;4996652;28;20765;-74
2022/06/23 04:44:15;;;;;;;10.63;6.67;;;20.00;99.90;;;;;;5002603;28;20445;-73
2022/06/23 04:46:40;;;;;;;9.87;6.13;;;19.90;99.90;;;;;;4998518;28;20400;-74
2022/06/23 04:49:17;;;;;;;6.07;5.50;;;19.90;99.90;;;;;;5016054;28;20428;-73
2022/06/23 04:51:56;;;;;;;6.67;5.97;;;19.70;99.90;;;;;;4998309;28;20698;-73
2022/06/23 04:54:46;;;;;;;6.63;6.03;;;19.60;99.90;;;;;;5006383;28;20442;-75
2022/06/23 04:57:31;;;;;;;7.33;5.80;;;19.50;99.90;;;;;;4978539;28;20457;-75
2022/06/23 05:00:01;;;;;;;6.97;5.63;;;19.50;99.90;;;;;;4996064;28;20456;-75
2022/06/23 05:02:38;;;;;;;5.73;5.13;;;19.40;99.90;;;;;;4995512;28;20434;-75
2022/06/23 05:05:24;;;;;;;6.90;6.07;;;19.40;99.90;;;;;;5013776;28;20797;-75
2022/06/23 05:07:55;;;;;;;7.17;5.60;;;19.30;99.90;;;;;;4997834;28;20437;-74
2022/06/23 05:10:25;;;;;;;6.00;5.40;;;19.30;99.90;;;;;;5015339;28;20426;-75
2022/06/23 05:13:08;;;;;;;6.37;4.97;;;19.30;99.90;;;;;;4987717;28;20427;-75
2022/06/23 05:15:43;;;;;;;12.90;6.37;;;19.30;99.90;;;;;;4995594;28;20441;-75
2022/06/23 05:18:13;;;;;;;8.57;7.20;;;19.50;99.90;;;;;;4995705;28;20801;-75
2022/06/23 05:20:39;;;;;;;9.60;7.30;;;19.60;99.90;;;;;;4978316;28;20442;-75
2022/06/23 05:23:05;;;;;;;8.20;7.30;;;19.80;99.90;;;;;;4987984;28;20437;-75
2022/06/23 05:25:43;;;;;;;8.10;6.53;;;20.00;99.90;;;;;;5015405;28;20163;-76
2022/06/23 05:28:21;;;;;;;8.67;6.40;;;20.20;99.90;;;;;;5015086;28;20484;-74
2022/06/23 05:31:02;;;;;;;8.43;4.87;;;20.30;99.90;;;;;;4999398;28;20393;-74
2022/06/23 05:33:34;;;;;;;6.70;6.10;;;20.40;99.90;;;;;;4995070;28;20456;-75
2022/06/23 05:36:12;;;;;;;8.30;5.93;;;20.50;99.90;;;;;;4995344;28;20453;-74
2022/06/23 05:38:40;;;;;;;7.43;5.40;;;20.70;99.90;;;;;;4995427;28;20438;-74
2022/06/23 05:41:12;;;;;;;5.20;4.80;;;20.90;99.90;;;;;;5011449;28;20815;-74
2022/06/23 05:43:41;;;;;;;5.23;4.50;;;21.20;99.90;;;;;;5014734;28;20781;-74
2022/06/23 05:46:12;;;;;;;6.07;4.50;;;21.30;99.90;;;;;;5014894;28;20406;-74
2022/06/23 05:48:41;;;;;;;5.67;4.10;;;21.40;99.90;;;;;;5015031;28;20453;-76
2022/06/23 05:51:10;;;;;;;11.50;5.07;;;21.40;99.90;;;;;;4998960;28;20455;-73
2022/06/23 05:53:53;;;;;;;7.70;5.20;;;21.50;99.90;;;;;;4994739;28;20446;-74
2022/06/23 05:56:41;;;;;;;5.53;4.37;;;21.60;99.90;;;;;;4995470;28;20438;-77
2022/06/23 05:59:35;;;;;;;5.40;4.33;;;21.70;99.90;;;;;;4994977;28;20370;-76
2022/06/23 06:02:10;;;;;;;6.20;4.40;;;21.70;99.90;;;;;;4973236;28;20437;-76
2022/06/23 06:04:49;;;;;;;5.93;4.63;;;21.80;99.90;;;;;;4994734;28;20753;-76
2022/06/23 06:07:18;;;;;;;6.30;4.63;;;21.80;99.90;;;;;;4994826;28;20900;-77
2022/06/23 06:09:45;;;;;;;6.57;4.47;;;21.90;99.90;;;;;;4998618;28;20421;-76
2022/06/23 06:12:24;;;;;;;7.20;3.87;;;22.00;99.90;;;;;;4996537;28;20421;-73
2022/06/23 06:15:08;;;;;;;4.53;3.50;;;22.10;99.90;;;;;;4979312;28;20440;-73
2022/06/23 06:17:36;;;;;;;7.57;3.93;;;22.20;99.90;;;;;;4995282;28;20438;-72
2022/06/23 06:20:07;;;;;;;6.70;4.73;;;22.20;99.90;;;;;;4994674;28;20978;-71
2022/06/23 06:22:54;;;;;;;14.17;4.57;;;22.20;99.90;;;;;;4993826;28;20425;-74
2022/06/23 06:25:33;;;;;;;5.93;5.13;;;22.20;99.90;;;;;;4994565;28;20430;-71
2022/06/23 06:28:14;;;;;;;8.20;4.80;;;22.20;99.90;;;;;;4977855;28;20948;-71
2022/06/23 06:30:45;;;;;;;5.50;5.00;;;22.30;99.90;;;;;;4998344;28;20487;-74
2022/06/23 06:33:46;;;;;;;5.80;5.13;;;22.30;99.90;;;;;;4994265;28;20435;-73
2022/06/23 06:36:31;;;;;;;6.80;4.93;;;22.50;99.90;;;;;;4954118;28;20460;-72
2022/06/23 06:39:02;;;;;;;4.47;4.07;;;22.50;99.90;;;;;;4994338;28;20805;-71
2022/06/23 06:41:28;;;;;;;4.87;4.23;;;22.70;99.90;;;;;;5007028;28;20770;-72
2022/06/23 06:43:55;;;;;;;8.73;5.33;;;22.70;99.90;;;;;;5004638;28;20948;-72
2022/06/23 06:46:21;;;;;;;9.07;3.93;;;22.80;99.90;;;;;;4993543;28;20772;-71
2022/06/23 06:48:47;;;;;;;4.63;4.23;;;22.80;99.90;;;;;;4976501;28;20428;-71
2022/06/23 06:51:20;;;;;;;3.60;3.30;;;22.80;99.90;;;;;;4990575;28;20206;-71
2022/06/23 06:53:58;;;;;;;5.03;4.50;;;22.90;99.90;;;;;;4974272;28;20904;-72
2022/06/23 06:56:47;;;;;;;4.83;4.43;;;23.00;99.90;;;;;;4993810;28;20435;-73
2022/06/23 06:59:32;;;;;;;3.20;3.00;;;23.20;99.90;;;;;;5001511;28;20431;-74
2022/06/23 07:02:03;;;;;;;4.30;4.00;;;23.40;99.90;;;;;;4974603;28;20414;-73
2022/06/23 07:04:44;;;;;;;4.10;3.63;;;23.50;99.90;;;;;;4987537;28;20951;-78
2022/06/23 07:07:18;;;;;;;7.77;3.63;;;23.80;99.90;;;;;;5000929;28;20825;-73
2022/06/23 07:10:02;;;;;;;12.83;3.30;;;24.20;99.90;;;;;;5004955;28;20449;-74
2022/06/23 07:12:45;;;;;;;4.87;4.10;;;24.50;99.90;;;;;;4989374;28;20446;-75
2022/06/23 07:15:13;;;;;;;4.17;2.80;;;24.80;99.90;;;;;;4996010;28;20435;-73
2022/06/23 07:17:46;;;;;;;4.70;2.70;;;25.00;99.90;;;;;;4993606;28;20505;-75
2022/06/23 07:20:25;;;;;;;8.07;2.93;;;25.10;99.90;;;;;;4998460;28;20468;-71
2022/06/23 07:22:57;;;;;;;4.83;3.07;;;25.30;99.90;;;;;;4974042;28;20374;-72
2022/06/23 07:25:29;;;;;;;4.90;3.17;;;25.50;99.90;;;;;;4988672;28;20501;-75
2022/06/23 07:28:14;;;;;;;5.80;3.53;;;26.00;99.90;;;;;;4993525;28;20750;-73
2022/06/23 07:30:57;;;;;;;3.37;3.13;;;26.50;99.90;;;;;;4993655;28;20401;-75
2022/06/23 07:33:27;;;;;;;3.40;3.10;;;27.10;99.90;;;;;;4993269;28;20405;-76
2022/06/23 07:36:14;;;;;;;5.63;3.40;;;27.60;99.90;;;;;;4994220;28;20404;-74
2022/06/23 07:38:58;;;;;;;3.60;3.40;;;28.10;99.90;;;;;;4974370;28;20386;-74
2022/06/23 07:41:35;;;;;;;3.50;2.87;;;29.00;99.90;;;;;;4974120;28;20412;-74
2022/06/23 07:44:03;;;;;;;3.80;3.10;;;30.10;99.90;;;;;;4973761;28;20533;-74
2022/06/23 07:46:31;;;;;;;6.00;3.70;;;31.30;99.10;;;;;;5008142;28;20417;-72
2022/06/23 07:48:56;;;;;;;3.53;3.13;;;31.70;96.00;;;;;;5002360;28;20435;-72
2022/06/23 07:51:22;;;;;;;3.67;2.60;;;31.80;95.90;;;;;;4980974;28;20537;-72
2022/06/23 07:53:51;;;;;;;3.80;3.40;;;32.10;94.30;;;;;;4998778;28;20187;-74
2022/06/23 07:56:20;;;;;;;5.03;4.40;;;32.80;93.60;;;;;;5012036;28;20450;-73
2022/06/23 07:58:51;;;;;;;4.73;3.50;;;33.40;92.60;;;;;;5016513;28;20401;-73
2022/06/23 08:01:23;;;;;;;3.17;2.87;;;34.20;92.80;;;;;;5014835;28;20455;-73
2022/06/23 08:04:03;;;;;;;5.50;2.93;;;35.10;91.80;;;;;;5015816;28;20451;-72
2022/06/23 08:06:30;;;;;;;3.57;3.00;;;36.10;88.40;;;;;;4999524;28;20897;-74
2022/06/23 08:09:01;;;;;;;3.87;3.20;;;36.40;82.80;;;;;;5001043;28;20425;-73
2022/06/23 08:14:31;;;;;;;3.03;2.83;;;36.90;85.20;;;;;;4996482;28;20490;-70
2022/06/23 08:16:58;;;;;;;3.20;3.00;;;37.00;80.90;;;;;;4990059;28;20939;-73
2022/06/23 08:19:50;;;;;;;3.53;3.20;;;37.30;77.70;;;;;;5001589;28;20426;-73
2022/06/23 08:22:22;;;;;;;3.97;3.67;;;37.50;79.00;;;;;;4996340;28;20434;-73
2022/06/23 08:24:52;;;;;;;6.80;3.70;;;37.50;75.00;;;;;;4996761;28;20418;-73
2022/06/23 08:27:20;;;;;;;3.00;2.70;;;37.30;75.90;;;;;;4996419;28;20883;-73
2022/06/23 08:29:53;;;;;;;3.60;3.10;;;37.20;73.70;;;;;;5003045;28;20414;-72
2022/06/23 08:32:20;;;;;;;3.97;3.57;;;37.30;76.40;;;;;;4996511;28;20435;-72
2022/06/23 08:35:02;;;;;;;3.87;3.30;;;37.50;72.50;;;;;;4978835;28;20439;-72
2022/06/23 08:37:35;;;;;;;2.50;2.30;;;37.50;73.70;;;;;;4996603;28;20956;-72
2022/06/23 08:40:12;;;;;;;3.00;2.80;;;37.60;72.10;;;;;;4996228;28;20466;-72
2022/06/23 08:42:46;;;;;;;3.23;2.90;;;38.10;74.30;;;;;;4996087;28;20406;-72
2022/06/23 08:45:27;;;;;;;5.73;2.83;;;38.40;71.30;;;;;;4996300;28;20443;-72
2022/06/23 08:47:58;;;;;;;3.03;2.77;;;38.30;69.10;;;;;;4996337;28;20454;-72
2022/06/23 08:50:43;;;;;;;3.23;2.67;;;38.40;70.30;;;;;;5008932;28;20484;-72
2022/06/23 08:53:29;;;;;;;4.20;3.80;;;38.60;69.80;;;;;;5013779;28;20425;-71
2022/06/23 08:56:01;;;;;;;2.83;2.57;;;39.00;66.30;;;;;;4997819;28;20415;-72
2022/06/23 08:58:39;;;;;;;3.37;3.07;;;39.40;65.90;;;;;;4995684;28;20407;-75
2022/06/23 09:01:10;;;;;;;3.80;3.40;;;39.80;61.30;;;;;;5003270;28;20872;-76
2022/06/23 09:04:03;;;;;;;3.33;2.80;;;40.10;61.40;;;;;;4995688;28;20841;-74
2022/06/23 09:06:45;;;;;;;6.40;4.07;;;39.50;64.80;;;;;;4996091;28;20454;-73
2022/06/23 09:09:24;;;;;;;4.10;2.60;;;39.00;65.40;;;;;;4997668;28;20433;-77
2022/06/23 09:12:27;;;;;;;2.90;2.70;;;38.80;64.60;;;;;;5011902;28;20402;-73
2022/06/23 09:15:23;;;;;;;2.77;2.57;;;39.00;60.00;;;;;;5005599;28;20781;-73
2022/06/23 09:18:13;;;;;;;3.00;2.13;;;38.30;60.80;;;;;;5015356;28;20938;-76
2022/06/23 09:21:04;;;;;;;4.40;3.00;;;37.80;63.10;;;;;;5015007;28;20420;-73
2022/06/23 09:23:36;;;;;;;3.50;3.20;;;37.80;62.90;;;;;;5011493;28;20445;-72
2022/06/23 09:26:14;;;;;;;4.70;3.20;;;38.00;67.50;;;;;;4995856;28;20415;-74
2022/06/23 09:28:46;;;;;;;3.57;3.27;;;38.40;64.20;;;;;;4975913;28;20438;-76
2022/06/23 09:31:14;;;;;;;3.10;2.80;;;38.40;63.20;;;;;;4994940;28;20832;-74
2022/06/23 09:34:15;;;;;;;3.23;3.00;;;38.50;64.50;;;;;;5012574;28;20434;-76
2022/06/23 09:37:15;;;;;;;3.43;3.13;;;39.00;60.40;;;;;;4966885;28;20426;-74
2022/06/23 09:40:19;;;;;;;2.97;2.77;;;40.00;60.80;;;;;;5014846;28;20464;-76
2022/06/23 09:42:55;;;;;;;3.70;3.40;;;40.30;58.80;;;;;;4994665;28;21007;-75
2022/06/23 09:45:35;;;;;;;3.27;3.07;;;40.00;59.30;;;;;;5008567;28;20422;-72
2022/06/23 09:48:40;;;;;;;3.60;3.30;;;39.40;60.80;;;;;;4997486;28;20785;-70
2022/06/23 09:51:36;;;;;;;3.13;2.80;;;39.30;62.90;;;;;;4977703;28;20497;-72
2022/06/23 09:54:15;;;;;;;3.53;3.03;;;39.20;60.60;;;;;;4980429;28;20445;-73
2022/06/23 09:56:55;;;;;;;3.43;3.23;;;39.00;59.90;;;;;;5014751;28;20405;-68
2022/06/23 10:00:08;;;;;;;3.87;3.57;;;39.10;60.30;;;;;;5014065;28;20418;-68
2022/06/23 10:03:06;;;;;;;3.57;3.27;;;39.00;61.00;;;;;;5007289;28;20428;-68
2022/06/23 10:05:37;;;;;;;3.97;3.17;;;39.00;61.00;;;;;;5005034;28;20928;-69
2022/06/23 10:08:11;;;;;;;3.23;2.93;;;39.10;62.10;;;;;;5014341;28;20541;-70
2022/06/23 10:10:58;;;;;;;3.53;3.33;;;39.70;59.30;;;;;;5015041;28;20399;-71
2022/06/23 10:13:45;;;;;;;3.73;3.40;;;40.40;59.20;;;;;;5002365;28;20438;-71
2022/06/23 10:16:17;;;;;;;4.97;3.50;;;40.80;59.10;;;;;;4994714;28;20403;-70
2022/06/23 10:18:54;;;;;;;4.37;3.50;;;40.80;57.60;;;;;;4994786;28;20411;-71
2022/06/23 10:21:32;;;;;;;5.27;4.20;;;40.60;57.10;;;;;;4994494;28;20407;-71
2022/06/23 10:24:30;;;;;;;3.83;3.40;;;40.20;57.00;;;;;;4996516;28;20438;-71
2022/06/23 10:27:14;;;;;;;6.40;3.43;;;39.40;57.60;;;;;;4974974;28;20466;-69
2022/06/23 10:29:43;;;;;;;3.30;3.00;;;39.30;58.20;;;;;;4994739;28;20966;-69
2022/06/23 10:32:29;;;;;;;6.27;3.00;;;39.50;57.50;;;;;;5002675;28;20422;-70
2022/06/23 10:35:04;;;;;;;4.40;4.10;;;39.40;57.20;;;;;;4994346;28;20446;-70
2022/06/23 10:37:42;;;;;;;4.40;3.13;;;38.90;57.60;;;;;;4994339;28;20459;-70
2022/06/23 10:40:47;;;;;;;3.33;3.03;;;38.70;58.00;;;;;;4994473;28;20892;-70
2022/06/23 10:43:24;;;;;;;2.73;2.53;;;38.30;57.80;;;;;;4964134;28;20457;-70
2022/06/23 10:45:51;;;;;;;5.27;3.77;;;37.00;59.80;;;;;;4994125;28;20733;-69
2022/06/23 10:48:37;;;;;;;2.90;2.70;;;36.70;61.70;;;;;;4994227;28;20454;-69
2022/06/23 10:51:37;;;;;;;5.03;3.17;;;36.70;61.40;;;;;;4994359;28;20434;-70
2022/06/23 10:54:26;;;;;;;4.67;3.40;;;36.70;60.10;;;;;;4994781;28;20967;-70
2022/06/23 10:57:29;;;;;;;3.40;3.10;;;36.30;62.30;;;;;;5013822;28;20398;-70
2022/06/23 11:00:08;;;;;;;3.60;3.33;;;36.20;61.50;;;;;;5013555;28;20465;-68
2022/06/23 11:03:11;;;;;;;3.20;2.30;;;36.30;60.70;;;;;;4992409;28;20936;-69
2022/06/23 11:06:19;;;;;;;2.93;2.70;;;36.50;61.70;;;;;;4993490;28;20434;-70
2022/06/23 11:09:02;;;;;;;4.83;2.70;;;36.90;59.60;;;;;;4993962;28;20417;-70
2022/06/23 11:11:48;;;;;;;4.77;3.60;;;37.30;59.20;;;;;;4976533;28;20407;-70
2022/06/23 11:14:42;;;;;;;3.47;3.17;;;36.90;60.10;;;;;;4991159;28;20963;-70
2022/06/23 11:17:37;;;;;;;3.17;2.67;;;36.30;61.40;;;;;;5013455;28;20409;-70
2022/06/23 11:20:21;;;;;;;3.73;3.40;;;35.10;63.70;;;;;;5012974;28;20919;-70
2022/06/23 11:23:00;;;;;;;4.47;3.33;;;34.10;65.40;;;;;;5009027;28;20422;-71
2022/06/23 11:25:42;;;;;;;4.03;3.43;;;33.30;68.20;;;;;;5000298;28;20400;-70
2022/06/23 11:28:26;;;;;;;4.73;3.50;;;32.50;70.30;;;;;;5010954;28;20523;-70
2022/06/23 11:30:51;;;;;;;3.43;3.13;;;32.00;70.90;;;;;;5008314;28;20411;-70
2022/06/23 11:33:42;;;;;;;4.90;2.70;;;31.60;72.80;;;;;;4993062;28;20426;-70
2022/06/23 11:36:41;;;;;;;5.73;2.40;;;31.20;71.40;;;;;;5009446;28;20190;-70
2022/06/23 11:39:24;;;;;;;3.00;2.60;;;30.70;72.30;;;;;;5012891;28;20402;-69
2022/06/23 11:42:06;;;;;;;5.90;2.93;;;30.40;72.70;;;;;;4979980;28;20445;-69
2022/06/23 11:44:58;;;;;;;4.90;2.47;;;30.30;74.00;;;;;;4994983;28;21153;-69
2022/06/23 11:47:33;;;;;;;3.63;3.30;;;30.30;77.10;;;;;;4986898;28;20443;-69
2022/06/23 11:50:16;;;;;;;4.73;3.10;;;30.30;76.40;;;;;;4988405;28;20488;-69
2022/06/23 11:53:21;;;;;;;2.70;2.50;;;30.30;76.80;;;;;;4982964;28;20461;-69
2022/06/23 11:55:59;;;;;;;4.90;2.97;;;30.30;77.00;;;;;;4975172;28;20954;-69
2022/06/23 11:59:04;;;;;;;5.33;3.27;;;30.10;76.60;;;;;;4983216;28;20765;-69
2022/06/23 12:01:30;;;;;;;4.63;2.60;;;30.00;77.10;;;;;;4983394;28;20402;-70
2022/06/23 12:04:14;;;;;;;2.80;2.30;;;29.90;77.40;;;;;;4983670;28;20539;-70
2022/06/23 12:07:12;;;;;;;5.87;2.63;;;29.90;76.30;;;;;;4990261;28;20251;-70
2022/06/23 12:09:52;;;;;;;5.07;1.97;;;30.00;73.40;;;;;;4990683;28;20740;-69
2022/06/23 12:12:18;;;;;;;2.30;2.10;;;29.90;73.80;;;;;;4986338;28;20455;-70
2022/06/23 12:14:44;;;;;;;6.03;2.17;;;29.90;75.00;;;;;;4983886;28;20435;-71
2022/06/23 12:17:28;;;;;;;2.90;2.20;;;29.90;72.50;;;;;;4982961;28;20625;-68
2022/06/23 12:20:10;;;;;;;3.50;2.40;;;29.90;73.40;;;;;;4975453;28;20183;-70
2022/06/23 12:22:45;;;;;;;3.30;2.00;;;29.90;74.40;;;;;;4982973;28;20389;-70
2022/06/23 12:25:23;;;;;;;5.20;2.10;;;29.80;72.50;;;;;;4989735;28;20453;-71
2022/06/23 12:28:06;;;;;;;3.20;2.03;;;29.80;71.60;;;;;;4995887;28;20508;-71
2022/06/23 12:30:40;;;;;;;2.17;1.97;;;29.80;71.80;;;;;;4983300;28;20721;-69
2022/06/23 12:33:21;;;;;;;5.40;2.03;;;29.80;72.10;;;;;;4985157;28;20380;-72
2022/06/23 12:36:33;;;;;;;3.60;2.40;;;29.90;71.40;;;;;;4988777;28;20411;-70
2022/06/23 12:39:10;;;;;;;4.47;2.13;;;29.90;71.20;;;;;;4956626;28;20456;-70
2022/06/23 12:41:49;;;;;;;2.70;1.90;;;29.80;71.90;;;;;;4989216;28;20430;-69
2022/06/23 12:44:42;;;;;;;3.03;2.30;;;29.90;71.40;;;;;;4991501;28;20857;-69
2022/06/23 12:47:19;;;;;;;3.30;2.20;;;29.90;73.30;;;;;;4986601;28;20426;-70
2022/06/23 12:50:08;;;;;;;2.60;2.30;;;29.90;72.20;;;;;;4986389;28;20949;-70
2022/06/23 12:52:51;;;;;;;4.17;2.43;;;29.90;71.90;;;;;;4977924;28;20420;-69
2022/06/23 12:55:43;;;;;;;2.03;1.93;;;30.00;72.80;;;;;;4988328;28;20432;-70
2022/06/23 12:58:37;;;;;;;2.60;1.93;;;30.10;71.90;;;;;;4986237;28;20438;-70
2022/06/23 13:01:13;;;;;;;5.23;2.20;;;30.20;71.30;;;;;;4977461;28;20438;-70
2022/06/23 13:03:58;;;;;;;2.83;2.27;;;30.30;71.60;;;;;;4987298;28;20476;-70
2022/06/23 13:06:34;;;;;;;2.70;2.50;;;30.30;71.90;;;;;;4985791;28;20436;-70
2022/06/23 13:09:15;;;;;;;2.70;2.30;;;30.30;70.90;;;;;;4985899;28;20943;-70
2022/06/23 13:12:06;;;;;;;3.93;2.13;;;30.40;72.00;;;;;;4985766;28;20441;-70
2022/06/23 13:14:53;;;;;;;2.73;2.17;;;30.30;70.80;;;;;;4987146;28;20421;-70
2022/06/23 13:17:32;;;;;;;2.87;2.10;;;30.30;73.00;;;;;;4988723;28;20426;-68
2022/06/23 13:20:30;;;;;;;3.87;2.30;;;30.20;71.80;;;;;;4993473;28;20470;-69
2022/06/23 13:22:59;;;;;;;3.00;2.40;;;30.20;71.90;;;;;;4992561;28;20933;-68
2022/06/23 13:25:32;;;;;;;5.47;2.17;;;30.30;71.80;;;;;;4991173;28;20409;-69
2022/06/23 13:27:58;;;;;;;2.60;2.20;;;30.50;71.10;;;;;;4988767;28;20934;-70
2022/06/23 13:30:28;;;;;;;5.10;2.60;;;30.50;71.70;;;;;;4994893;28;20476;-69
2022/06/23 13:33:08;;;;;;;5.50;3.33;;;30.70;72.00;;;;;;4993463;28;20266;-70
2022/06/23 13:35:40;;;;;;;2.77;2.20;;;30.80;71.50;;;;;;4980434;28;20840;-70
2022/06/23 13:38:19;;;;;;;3.23;2.60;;;30.80;70.40;;;;;;4995398;28;20439;-68
2022/06/23 13:41:05;;;;;;;4.03;3.00;;;30.80;70.00;;;;;;4994231;28;20417;-69
2022/06/23 13:43:35;;;;;;;3.10;2.30;;;30.60;71.20;;;;;;4985081;28;20479;-70
2022/06/23 13:46:17;;;;;;;6.03;2.90;;;30.30;72.50;;;;;;4995338;28;20510;-69
2022/06/23 13:48:54;;;;;;;3.23;2.93;;;30.00;71.60;;;;;;4976358;28;20415;-72
2022/06/23 13:51:29;;;;;;;3.83;2.40;;;29.90;72.90;;;;;;4994912;28;20401;-70
2022/06/23 13:54:23;;;;;;;3.33;2.40;;;29.80;73.70;;;;;;4994386;28;20930;-69
2022/06/23 13:56:57;;;;;;;4.07;2.90;;;29.80;75.10;;;;;;4994804;28;20759;-70
2022/06/23 13:59:40;;;;;;;3.77;2.23;;;29.90;75.20;;;;;;4995063;28;20417;-71
2022/06/23 14:02:24;;;;;;;8.93;3.03;;;30.00;74.10;;;;;;4984016;28;20769;-68
2022/06/23 14:04:59;;;;;;;6.33;2.90;;;30.10;73.00;;;;;;4997306;28;20874;-68
2022/06/23 14:07:35;;;;;;;5.80;2.20;;;30.20;71.90;;;;;;4996987;28;20556;-69
2022/06/23 14:10:20;;;;;;;5.43;2.53;;;30.20;71.80;;;;;;5014426;28;20380;-69
2022/06/23 14:12:59;;;;;;;3.13;2.50;;;30.20;70.70;;;;;;4995588;28;20751;-68
2022/06/23 14:16:17;;;;;;;4.73;2.57;;;30.20;69.60;;;;;;4992377;28;20422;-69
2022/06/23 14:19:00;;;;;;;2.90;2.43;;;30.10;70.40;;;;;;4923667;28;20405;-70
2022/06/23 14:21:31;;;;;;;5.17;2.80;;;30.10;71.10;;;;;;5004303;28;20426;-70
2022/06/23 14:24:00;;;;;;;2.33;2.17;;;30.10;70.00;;;;;;4981085;28;20417;-71
2022/06/23 14:26:42;;;;;;;2.90;2.20;;;30.20;69.50;;;;;;4992393;28;20396;-69
2022/06/23 14:29:17;;;;;;;2.50;2.23;;;30.20;70.00;;;;;;4994387;28;20989;-71
2022/06/23 14:31:53;;;;;;;3.80;3.10;;;30.20;69.90;;;;;;4994729;28;20493;-70
2022/06/23 14:34:34;;;;;;;6.73;2.70;;;30.30;70.80;;;;;;5002799;28;20876;-71
2022/06/23 14:37:30;;;;;;;3.70;2.80;;;30.40;70.80;;;;;;4997880;28;20408;-73
2022/06/23 14:40:21;;;;;;;3.83;2.60;;;30.40;69.50;;;;;;4995261;28;20404;-70
2022/06/23 14:43:01;;;;;;;4.60;3.07;;;30.40;70.90;;;;;;4984230;28;20417;-69
2022/06/23 14:46:04;;;;;;;4.17;3.20;;;30.50;72.10;;;;;;4994159;28;20468;-76
2022/06/23 14:48:44;;;;;;;3.50;2.50;;;30.60;70.00;;;;;;4987458;28;20879;-73
2022/06/23 14:51:17;;;;;;;5.50;3.00;;;30.50;69.60;;;;;;4994345;28;20498;-70
2022/06/23 14:53:54;;;;;;;3.97;2.60;;;30.50;69.10;;;;;;5000638;28;20525;-74
2022/06/23 14:56:41;;;;;;;5.27;3.67;;;30.40;69.10;;;;;;4978273;28;20428;-70
2022/06/23 14:59:37;;;;;;;6.47;3.10;;;30.30;68.90;;;;;;4985219;28;20472;-71
2022/06/23 15:02:20;;;;;;;5.77;2.80;;;30.20;69.30;;;;;;4993439;28;20896;-76
2022/06/23 15:05:16;;;;;;;2.30;2.10;;;30.20;69.50;;;;;;5008201;28;20424;-75
2022/06/23 15:07:51;;;;;;;4.23;2.33;;;30.30;68.90;;;;;;4975550;28;20471;-75
2022/06/23 15:10:32;;;;;;;2.90;2.60;;;30.30;69.10;;;;;;4992421;28;20826;-74
2022/06/23 15:13:22;;;;;;;3.53;2.50;;;30.40;68.90;;;;;;4992469;28;20473;-76
2022/06/23 15:16:04;;;;;;;3.40;2.07;;;30.50;69.10;;;;;;4978522;28;20502;-74
2022/06/23 15:18:43;;;;;;;2.33;2.13;;;30.60;67.80;;;;;;4977676;28;20411;-73
2022/06/23 15:24:26;;;;;;;5.53;2.87;;;30.70;68.30;;;;;;5013268;28;20407;-73
2022/06/23 15:27:02;;;;;;;4.60;2.50;;;30.80;69.60;;;;;;4993473;28;20926;-76
2022/06/23 15:29:37;;;;;;;2.33;2.23;;;30.80;69.30;;;;;;4979842;28;20780;-74
2022/06/23 15:32:21;;;;;;;3.70;2.00;;;30.70;69.50;;;;;;5013393;28;20901;-76
2022/06/23 15:34:52;;;;;;;2.30;2.10;;;30.70;69.40;;;;;;5013187;28;20985;-74
2022/06/23 15:37:27;;;;;;;5.67;2.40;;;30.60;69.80;;;;;;5013497;28;20930;-75
2022/06/23 15:40:17;;;;;;;2.70;2.03;;;30.50;69.20;;;;;;5013398;28;20437;-78
2022/06/23 15:43:06;;;;;;;3.93;2.70;;;30.20;70.80;;;;;;4983768;28;20564;-76
2022/06/23 15:46:10;;;;;;;4.07;1.90;;;30.10;70.50;;;;;;5007568;28;20957;-75
2022/06/23 15:48:41;;;;;;;5.53;2.50;;;30.00;70.70;;;;;;4972752;28;20512;-75
2022/06/23 15:51:20;;;;;;;3.67;2.00;;;30.00;70.50;;;;;;5013379;28;20819;-77
2022/06/23 15:53:56;;;;;;;3.97;2.87;;;30.00;70.40;;;;;;5012920;28;21071;-77
2022/06/23 15:56:48;;;;;;;2.13;2.03;;;30.00;71.20;;;;;;5013040;28;20468;-76
2022/06/23 15:59:25;;;;;;;2.87;2.70;;;30.00;72.10;;;;;;5012013;28;20424;-76
2022/06/23 16:02:04;;;;;;;3.20;2.43;;;30.10;72.10;;;;;;5012715;28;20432;-76
2022/06/23 16:04:43;;;;;;;2.97;2.37;;;30.20;71.50;;;;;;5012644;28;20518;-76
2022/06/23 16:07:13;;;;;;;2.73;2.30;;;30.20;69.30;;;;;;5015563;28;20523;-73
2022/06/23 16:09:51;;;;;;;2.33;1.90;;;30.20;69.50;;;;;;5011870;28;20851;-74
2022/06/23 16:12:38;;;;;;;4.20;2.43;;;30.20;69.40;;;;;;5016012;28;20506;-77
2022/06/23 16:15:37;;;;;;;4.53;2.90;;;30.20;70.30;;;;;;5016492;28;20392;-74
2022/06/23 16:18:12;;;;;;;5.07;3.03;;;30.20;70.90;;;;;;5008139;28;20915;-73
2022/06/23 16:20:53;;;;;;;3.53;3.23;;;30.20;71.70;;;;;;5014612;28;20442;-79
2022/06/23 16:23:31;;;;;;;2.73;2.20;;;30.10;71.60;;;;;;5016247;28;20444;-73
2022/06/23 16:26:07;;;;;;;7.13;2.07;;;30.10;71.10;;;;;;5016585;28;20398;-77
2022/06/23 16:28:34;;;;;;;2.83;2.50;;;30.10;71.20;;;;;;4998860;28;20519;-72
2022/06/23 16:31:00;;;;;;;3.97;2.80;;;30.10;71.80;;;;;;4989188;28;20401;-75
2022/06/23 16:33:44;;;;;;;3.03;2.60;;;30.00;72.40;;;;;;4998046;28;20399;-73
2022/06/23 16:36:09;;;;;;;2.43;2.23;;;30.00;72.10;;;;;;5016200;28;20433;-75
2022/06/23 16:38:48;;;;;;;5.90;4.70;;;29.90;72.10;;;;;;5016294;28;20448;-75
2022/06/23 16:41:50;;;;;;;2.10;1.87;;;29.90;72.20;;;;;;4995221;28;20217;-75
2022/06/23 16:44:22;;;;;;;2.83;2.10;;;29.90;71.90;;;;;;4977920;28;20598;-75
2022/06/23 16:47:02;;;;;;;2.40;2.20;;;29.90;71.70;;;;;;4996736;28;20540;-76
2022/06/23 16:50:03;;;;;;;3.30;1.77;;;29.90;71.20;;;;;;4995958;28;20407;-75
2022/06/23 16:52:40;;;;;;;4.30;1.43;;;29.90;72.20;;;;;;4995951;28;20442;-76
2022/06/23 16:55:22;;;;;;;6.13;2.10;;;29.80;73.20;;;;;;4996508;28;20553;-77
2022/06/23 16:57:58;;;;;;;2.60;2.40;;;29.80;72.30;;;;;;4996441;28;20617;-75
2022/06/23 17:00:43;;;;;;;3.70;2.00;;;29.70;72.10;;;;;;5007271;28;20407;-74
2022/06/23 17:03:20;;;;;;;3.90;2.10;;;29.60;73.10;;;;;;4991101;28;21068;-73
2022/06/23 17:05:50;;;;;;;4.17;1.70;;;29.50;73.10;;;;;;5015547;28;20488;-74
2022/06/23 17:08:21;;;;;;;2.50;1.47;;;29.40;72.80;;;;;;5013063;28;20505;-76
2022/06/23 17:11:00;;;;;;;2.80;1.63;;;29.40;72.10;;;;;;4996017;28;20396;-77
2022/06/23 17:13:36;;;;;;;4.70;1.50;;;29.40;72.50;;;;;;4995043;28;20450;-78
2022/06/23 17:16:09;;;;;;;5.00;1.83;;;29.40;72.50;;;;;;4995600;28;20476;-75
2022/06/23 17:18:42;;;;;;;5.03;2.00;;;29.50;73.00;;;;;;5004230;28;20421;-75
2022/06/23 17:21:19;;;;;;;2.43;1.53;;;29.50;73.60;;;;;;4999290;28;20504;-78
2022/06/23 17:23:48;;;;;;;1.60;1.30;;;29.50;74.00;;;;;;4995371;28;20851;-78
2022/06/23 17:26:37;;;;;;;1.83;1.63;;;29.50;74.40;;;;;;4997771;28;20414;-75
2022/06/23 17:29:18;;;;;;;2.07;1.40;;;29.50;74.50;;;;;;5015437;28;20434;-75
2022/06/23 17:31:50;;;;;;;2.20;1.40;;;29.50;74.10;;;;;;4984547;28;20396;-76
2022/06/23 17:34:25;;;;;;;3.07;2.77;;;29.50;74.50;;;;;;5000224;28;20477;-81
2022/06/23 17:36:56;;;;;;;1.30;1.20;;;29.40;74.90;;;;;;5012985;28;20505;-73
2022/06/23 17:46:04;;;;;;;1.30;1.20;;;29.30;74.90;;;;;;4997021;28;20429;-76
2022/06/23 17:48:50;;;;;;;2.80;1.80;;;29.30;75.20;;;;;;4976568;28;20440;-72
2022/06/23 17:51:30;;;;;;;1.63;1.53;;;29.20;75.60;;;;;;4977123;28;20383;-77
2022/06/23 17:54:09;;;;;;;2.20;2.00;;;29.10;76.40;;;;;;4972290;28;20461;-76
2022/06/23 17:56:48;;;;;;;3.30;1.40;;;29.10;76.90;;;;;;4986445;28;20492;-79
2022/06/23 17:59:30;;;;;;;2.10;1.73;;;29.00;77.40;;;;;;5002371;28;20467;-78
2022/06/23 18:02:08;;;;;;;3.53;1.53;;;28.90;77.60;;;;;;5014127;28;20497;-78
2022/06/23 18:04:41;;;;;;;1.80;1.40;;;28.90;78.60;;;;;;4976150;28;20435;-77
2022/06/23 18:07:15;;;;;;;3.27;1.60;;;28.80;78.30;;;;;;4976210;28;20493;-74